createdAt,value
2023-01-02T00:02:07.728Z,11.47
2023-01-02T00:04:39.820Z,11.43
2023-01-02T00:07:11.830Z,11.40
2023-01-02T00:09:43.780Z,11.46
2023-01-02T00:12:15.724Z,11.48
2023-01-02T00:14:47.712Z,11.51
2023-01-02T00:17:20.673Z,11.56
2023-01-02T00:19:52.713Z,11.56
2023-01-02T00:22:24.640Z,11.57
2023-01-02T00:24:57.245Z,11.52
2023-01-02T00:27:29.187Z,11.47
2023-01-02T00:30:01.228Z,11.47
2023-01-02T00:32:33.199Z,11.46
2023-01-02T00:35:06.020Z,11.47
2023-01-02T00:37:38.554Z,11.51
2023-01-02T00:40:14.217Z,11.49
2023-01-02T00:42:46.169Z,11.51
2023-01-02T00:45:18.200Z,11.52
2023-01-02T00:47:50.199Z,11.52
2023-01-02T00:50:22.182Z,11.56
2023-01-02T00:52:54.162Z,11.55
2023-01-02T00:55:26.152Z,11.61
2023-01-02T00:57:58.091Z,11.61
2023-01-02T01:00:30.203Z,11.63
2023-01-02T01:03:02.254Z,11.56
2023-01-02T01:05:34.257Z,11.52
2023-01-02T01:08:07.145Z,11.51
2023-01-02T01:10:39.692Z,11.50
2023-01-02T01:13:11.646Z,11.58
2023-01-02T01:15:44.433Z,11.63
2023-01-02T01:18:16.521Z,11.66
2023-01-02T01:20:48.508Z,11.52
2023-01-02T01:23:20.422Z,11.54
2023-01-02T01:25:52.369Z,11.61
2023-01-02T01:28:24.307Z,11.56
2023-01-02T01:30:56.255Z,11.57
2023-01-02T01:33:28.745Z,11.61
2023-01-02T01:36:06.568Z,11.58
2023-01-02T01:38:38.693Z,11.53
2023-01-02T01:41:16.996Z,11.53
2023-01-02T01:43:56.761Z,11.59
2023-01-02T01:46:44.158Z,11.59
2023-01-02T01:49:27.757Z,11.65
2023-01-02T01:52:08.186Z,11.61
2023-01-02T01:54:49.965Z,11.67
2023-01-02T01:57:31.830Z,11.67
2023-01-02T02:00:05.538Z,11.74
2023-01-02T02:02:44.041Z,11.73
2023-01-02T02:05:21.210Z,11.75
2023-01-02T02:08:35.736Z,11.73
2023-01-02T02:11:09.903Z,11.79
2023-01-02T02:13:42.600Z,11.80
2023-01-02T02:16:17.635Z,11.80
2023-01-02T02:19:25.494Z,11.67
2023-01-02T02:22:40.658Z,11.72
2023-01-02T02:25:49.481Z,11.73
2023-01-02T02:29:36.941Z,11.77
2023-01-02T02:32:36.415Z,11.80
2023-01-02T02:35:28.984Z,11.82
2023-01-02T02:38:13.018Z,11.87
2023-01-02T02:41:28.193Z,11.87
2023-01-02T02:44:37.586Z,11.99
2023-01-02T02:47:28.070Z,12.08
2023-01-02T02:50:11.374Z,12.15
2023-01-02T02:52:59.031Z,12.19
2023-01-02T02:55:48.421Z,12.27
2023-01-02T02:58:21.960Z,12.33
2023-01-02T03:01:08.787Z,12.42
2023-01-02T03:03:40.865Z,12.39
2023-01-02T03:06:18.812Z,12.43
2023-01-02T03:09:34.038Z,12.53
2023-01-02T03:12:18.186Z,12.61
2023-01-02T03:15:24.734Z,12.64
2023-01-02T03:18:27.885Z,12.73
2023-01-02T03:21:10.278Z,12.78
2023-01-02T03:23:46.149Z,12.79
2023-01-02T03:26:27.158Z,12.86
2023-01-02T03:29:04.804Z,12.84
2023-01-02T03:31:40.909Z,12.91
2023-01-02T03:34:24.520Z,12.90
2023-01-02T03:37:03.514Z,12.82
2023-01-02T03:39:39.897Z,12.86
2023-01-02T03:42:23.365Z,12.87
2023-01-02T03:45:07.683Z,12.89
2023-01-02T03:47:50.118Z,12.94
2023-01-02T03:50:41.832Z,12.95
2023-01-02T03:53:14.184Z,12.94
2023-01-02T03:56:37.681Z,12.91
2023-01-02T03:59:38.197Z,12.88
2023-01-02T04:02:54.473Z,12.86
2023-01-02T04:05:42.828Z,12.72
2023-01-02T04:08:32.880Z,12.65
2023-01-02T04:11:07.025Z,12.51
2023-01-02T04:13:51.296Z,12.50
2023-01-02T04:16:30.250Z,12.43
2023-01-02T04:19:13.090Z,12.42
2023-01-02T04:21:47.484Z,12.32
2023-01-02T04:24:31.003Z,12.24
2023-01-02T04:27:15.517Z,12.27
2023-01-02T04:29:47.512Z,12.15
2023-01-02T04:32:36.990Z,12.18
2023-01-02T04:35:14.535Z,12.21
2023-01-02T04:37:47.781Z,12.24
2023-01-02T04:40:36.691Z,12.17
2023-01-02T04:43:19.711Z,12.21
2023-01-02T04:45:51.810Z,12.23
2023-01-02T04:48:23.819Z,12.25
2023-01-02T04:50:56.029Z,12.25
2023-01-02T04:53:27.956Z,12.17
2023-01-02T04:55:59.909Z,12.19
2023-01-02T04:58:31.857Z,12.16
2023-01-02T05:01:09.694Z,12.24
2023-01-02T05:03:44.281Z,12.28
2023-01-02T05:06:16.814Z,12.24
2023-01-02T05:08:48.789Z,12.26
2023-01-02T05:11:21.104Z,12.37
2023-01-02T05:13:53.324Z,12.44
2023-01-02T05:16:25.338Z,12.38
2023-01-02T05:18:57.276Z,12.45
2023-01-02T05:21:47.507Z,12.47
2023-01-02T05:24:19.575Z,12.46
2023-01-02T05:26:51.569Z,12.43
2023-01-02T05:29:23.666Z,12.48
2023-01-02T05:31:55.673Z,12.49
2023-01-02T05:34:27.627Z,12.41
2023-01-02T05:36:59.642Z,12.38
2023-01-02T05:39:31.674Z,12.43
2023-01-02T05:42:03.736Z,12.46
2023-01-02T05:44:35.729Z,12.46
2023-01-02T05:47:10.841Z,12.40
2023-01-02T05:49:45.426Z,12.46
2023-01-02T05:52:17.402Z,12.42
2023-01-02T05:54:49.369Z,12.37
2023-01-02T05:57:21.460Z,12.34
2023-01-02T05:59:53.391Z,12.40
2023-01-02T06:02:25.410Z,12.42
2023-01-02T06:04:57.450Z,12.41
2023-01-02T06:07:29.444Z,12.42
2023-01-02T06:10:01.644Z,12.44
2023-01-02T06:12:33.596Z,12.39
2023-01-02T06:15:06.106Z,12.39
2023-01-02T06:17:38.092Z,12.44
2023-01-02T06:20:10.582Z,12.40
2023-01-02T06:22:42.512Z,12.46
2023-01-02T06:25:14.561Z,12.39
2023-01-02T06:27:46.517Z,12.42
2023-01-02T06:30:18.545Z,12.45
2023-01-02T06:32:50.469Z,12.42
2023-01-02T06:35:22.709Z,12.48
2023-01-02T06:37:54.690Z,12.50
2023-01-02T06:40:26.630Z,12.48
2023-01-02T06:43:00.286Z,12.59
2023-01-02T06:45:32.544Z,12.58
2023-01-02T06:48:04.961Z,12.51
2023-01-02T06:50:37.208Z,12.52
2023-01-02T06:53:09.201Z,12.59
2023-01-02T06:55:50.842Z,12.65
2023-01-02T06:58:23.784Z,12.69
2023-01-02T07:00:55.846Z,12.66
2023-01-02T07:03:27.859Z,12.71
2023-01-02T07:06:09.559Z,12.77
2023-01-02T07:08:43.393Z,12.74
2023-01-02T07:11:24.202Z,12.80
2023-01-02T07:13:56.424Z,12.69
2023-01-02T07:16:28.456Z,12.69
2023-01-02T07:19:00.503Z,12.68
2023-01-02T07:21:32.528Z,12.78
2023-01-02T07:24:04.818Z,12.85
2023-01-02T07:26:36.795Z,12.81
2023-01-02T07:29:09.292Z,12.88
2023-01-02T07:31:41.325Z,12.88
2023-01-02T07:34:13.270Z,12.89
2023-01-02T07:36:45.261Z,12.89
2023-01-02T07:39:17.188Z,12.96
2023-01-02T07:41:49.357Z,12.86
2023-01-02T07:44:21.283Z,12.90
2023-01-02T07:46:53.262Z,12.91
2023-01-02T07:49:25.303Z,12.90
2023-01-02T07:51:57.276Z,12.93
2023-01-02T07:54:29.314Z,12.87
2023-01-02T07:57:01.301Z,12.92
2023-01-02T07:59:33.235Z,12.95
2023-01-02T08:02:05.377Z,12.97
2023-01-02T08:04:37.584Z,13.04
2023-01-02T08:07:10.183Z,13.07
2023-01-02T08:09:42.163Z,12.98
2023-01-02T08:12:14.113Z,12.99
2023-01-02T08:14:46.048Z,13.05
2023-01-02T08:17:18.009Z,13.04
2023-01-02T08:19:50.008Z,13.10
2023-01-02T08:22:22.237Z,13.07
2023-01-02T08:24:54.169Z,13.06
2023-01-02T08:27:26.221Z,13.06
2023-01-02T08:29:58.436Z,13.07
2023-01-02T08:32:30.375Z,12.98
2023-01-02T08:35:02.370Z,13.04
2023-01-02T08:37:34.831Z,13.10
2023-01-02T08:40:07.285Z,13.14
2023-01-02T08:42:43.093Z,13.16
2023-01-02T08:45:15.171Z,13.11
2023-01-02T08:47:47.158Z,13.08
2023-01-02T08:50:19.722Z,13.05
2023-01-02T08:52:51.956Z,13.16
2023-01-02T08:55:23.900Z,13.24
2023-01-02T08:57:56.029Z,13.29
2023-01-02T09:00:27.964Z,13.26
2023-01-02T09:03:00.319Z,13.18
2023-01-02T09:05:32.407Z,13.06
2023-01-02T09:08:04.740Z,13.02
2023-01-02T09:10:36.726Z,13.17
2023-01-02T09:13:08.725Z,13.14
2023-01-02T09:15:45.422Z,13.15
2023-01-02T09:18:17.413Z,13.19
2023-01-02T09:20:49.354Z,13.10
2023-01-02T09:23:21.295Z,13.08
2023-01-02T09:25:53.261Z,13.11
2023-01-02T09:28:25.562Z,13.11
2023-01-02T09:30:57.612Z,13.13
2023-01-02T09:33:29.695Z,13.16
2023-01-02T09:36:04.358Z,13.21
2023-01-02T09:38:37.153Z,13.04
2023-01-02T09:41:34.823Z,13.12
2023-01-02T09:44:33.564Z,13.15
2023-01-02T09:47:15.963Z,13.09
2023-01-02T09:49:58.455Z,13.10
2023-01-02T09:52:55.648Z,13.04
2023-01-02T09:55:47.229Z,12.94
2023-01-02T09:58:36.468Z,12.88
2023-01-02T10:01:22.327Z,12.72
2023-01-02T10:04:49.143Z,12.65
2023-01-02T10:07:31.626Z,12.61
2023-01-02T10:10:16.353Z,12.67
2023-01-02T10:13:44.181Z,12.61
2023-01-02T10:16:25.498Z,12.70
2023-01-02T10:19:02.701Z,12.66
2023-01-02T10:21:37.802Z,12.61
2023-01-02T10:24:36.442Z,12.68
2023-01-02T10:27:17.316Z,12.56
2023-01-02T10:30:27.677Z,12.57
2023-01-02T10:33:12.786Z,12.57
2023-01-02T10:35:53.683Z,12.51
2023-01-02T10:38:32.700Z,12.43
2023-01-02T10:41:05.720Z,12.31
2023-01-02T10:43:37.730Z,12.42
2023-01-02T10:46:09.805Z,12.49
2023-01-02T10:48:47.001Z,12.47
2023-01-02T10:51:24.823Z,12.41
2023-01-02T10:54:03.032Z,12.23
2023-01-02T10:56:39.352Z,12.17
2023-01-02T10:59:29.049Z,11.93
2023-01-02T11:02:01.297Z,11.86
2023-01-02T11:04:33.440Z,11.79
2023-01-02T11:07:05.472Z,11.77
2023-01-02T11:09:37.699Z,11.68
2023-01-02T11:12:13.342Z,11.61
2023-01-02T11:14:45.401Z,11.58
2023-01-02T11:17:26.697Z,11.62
2023-01-02T11:19:58.882Z,11.64
2023-01-02T11:22:37.147Z,11.65
2023-01-02T11:25:22.774Z,11.55
2023-01-02T11:28:00.420Z,11.46
2023-01-02T11:30:47.951Z,11.36
2023-01-02T11:33:32.988Z,11.40
2023-01-02T11:36:06.496Z,11.23
2023-01-02T11:38:55.054Z,11.18
2023-01-02T11:42:13.553Z,11.19
2023-01-02T11:45:04.825Z,11.21
2023-01-02T11:47:44.408Z,11.19
2023-01-02T11:50:25.442Z,11.11
2023-01-02T11:53:12.311Z,11.01
2023-01-02T11:55:54.770Z,10.99
2023-01-02T11:59:02.203Z,10.92
2023-01-02T12:02:06.123Z,10.98
2023-01-02T12:04:38.299Z,11.01
2023-01-02T12:07:43.925Z,11.03
2023-01-02T12:10:43.171Z,11.13
2023-01-02T12:13:39.926Z,11.19
2023-01-02T12:16:45.793Z,11.16
2023-01-02T12:19:56.584Z,11.30
2023-01-02T12:23:11.094Z,11.30
2023-01-02T12:26:11.170Z,11.37
2023-01-02T12:29:47.140Z,11.31
2023-01-02T12:32:35.912Z,11.33
2023-01-02T12:35:47.372Z,11.36
2023-01-02T12:38:52.211Z,11.46
2023-01-02T12:42:03.974Z,11.51
2023-01-02T12:44:54.117Z,11.53
2023-01-02T12:47:56.317Z,11.57
2023-01-02T12:50:50.753Z,11.56
2023-01-02T12:54:20.073Z,11.61
2023-01-02T12:57:21.914Z,11.55
2023-01-02T13:00:15.039Z,11.64
2023-01-02T13:03:28.468Z,11.66
2023-01-02T13:06:44.866Z,11.69
2023-01-02T13:09:22.442Z,11.59
2023-01-02T13:12:10.298Z,11.58
2023-01-02T13:14:46.045Z,11.58
2023-01-02T13:17:53.779Z,11.46
2023-01-02T13:21:05.766Z,11.35
2023-01-02T13:23:47.655Z,11.29
2023-01-02T13:26:27.037Z,11.26
2023-01-02T13:29:22.368Z,11.29
2023-01-02T13:31:56.428Z,11.32
2023-01-02T13:34:33.150Z,11.44
2023-01-02T13:37:08.575Z,11.26
2023-01-02T13:39:40.953Z,11.23
2023-01-02T13:42:53.355Z,11.15
2023-01-02T13:45:42.367Z,11.04
2023-01-02T13:48:55.422Z,11.10
2023-01-02T13:51:32.333Z,10.94
2023-01-02T13:54:18.191Z,10.90
2023-01-02T13:57:28.930Z,10.84
2023-01-02T14:00:35.929Z,10.78
2023-01-02T14:03:20.708Z,10.92
2023-01-02T14:06:01.518Z,10.87
2023-01-02T14:09:08.674Z,10.61
2023-01-02T14:11:55.474Z,10.61
2023-01-02T14:15:00.498Z,10.67
2023-01-02T14:17:47.959Z,10.72
2023-01-02T14:20:23.797Z,10.82
2023-01-02T14:23:09.927Z,10.84
2023-01-02T14:25:49.384Z,10.86
2023-01-02T14:28:31.517Z,10.84
2023-01-02T14:31:23.034Z,10.81
2023-01-02T14:33:56.488Z,10.73
2023-01-02T14:36:47.639Z,10.67
2023-01-02T14:39:27.110Z,10.52
2023-01-02T14:42:31.593Z,10.56
2023-01-02T14:45:10.882Z,10.66
2023-01-02T14:47:49.635Z,10.68
2023-01-02T14:50:26.525Z,10.69
2023-01-02T14:53:10.294Z,10.66
2023-01-02T14:55:43.055Z,10.59
2023-01-02T14:58:34.640Z,10.56
2023-01-02T15:01:08.035Z,10.55
2023-01-02T15:04:20.607Z,10.62
2023-01-02T15:07:27.841Z,10.48
2023-01-02T15:10:13.474Z,10.57
2023-01-02T15:13:05.210Z,10.59
2023-01-02T15:15:46.480Z,10.60
2023-01-02T15:18:29.645Z,10.61
2023-01-02T15:21:11.642Z,10.65
2023-01-02T15:23:46.948Z,10.75
2023-01-02T15:26:48.423Z,10.76
2023-01-02T15:29:29.006Z,10.66
2023-01-02T15:32:01.973Z,10.60
2023-01-02T15:34:34.517Z,10.59
2023-01-02T15:37:07.689Z,10.58
2023-01-02T15:39:43.168Z,10.63
2023-01-02T15:42:42.257Z,10.62
2023-01-02T15:45:17.345Z,10.67
2023-01-02T15:47:51.172Z,10.60
2023-01-02T15:50:26.962Z,10.73
2023-01-02T15:53:03.292Z,10.66
2023-01-02T15:55:39.767Z,10.67
2023-01-02T15:58:17.873Z,10.73
2023-01-02T16:01:10.125Z,10.76
2023-01-02T16:04:02.223Z,10.73
2023-01-02T16:06:43.200Z,10.78
2023-01-02T16:09:28.902Z,10.74
2023-01-02T16:12:03.582Z,10.67
2023-01-02T16:14:42.165Z,10.63
2023-01-02T16:17:24.438Z,10.45
2023-01-02T16:20:03.221Z,10.46
2023-01-02T16:23:00.023Z,10.61
2023-01-02T16:25:35.254Z,10.55
2023-01-02T16:28:37.064Z,10.49
2023-01-02T16:31:14.006Z,10.31
2023-01-02T16:33:47.292Z,10.29
2023-01-02T16:36:24.712Z,10.30
2023-01-02T16:39:00.180Z,10.26
2023-01-02T16:41:37.077Z,10.33
2023-01-02T16:44:15.936Z,10.36
2023-01-02T16:46:49.774Z,10.32
2023-01-02T16:49:23.448Z,10.22
2023-01-02T16:51:55.867Z,10.20
2023-01-02T16:54:27.878Z,10.28
2023-01-02T16:57:05.303Z,10.20
2023-01-02T16:59:37.288Z,10.16
2023-01-02T17:02:28.486Z,10.08
2023-01-02T17:05:01.775Z,10.13
2023-01-02T17:07:33.745Z,10.16
2023-01-02T17:10:06.480Z,10.23
2023-01-02T17:12:43.432Z,10.29
2023-01-02T17:15:16.681Z,10.29
2023-01-02T17:17:51.767Z,10.41
2023-01-02T17:20:24.332Z,10.38
2023-01-02T17:22:57.349Z,10.31
2023-01-02T17:25:29.623Z,10.29
2023-01-02T17:28:01.710Z,10.19
2023-01-02T17:30:33.685Z,10.06
2023-01-02T17:33:05.865Z,10.14
2023-01-02T17:35:38.121Z,10.12
2023-01-02T17:38:10.245Z,9.96
2023-01-02T17:40:42.344Z,9.71
2023-01-02T17:43:14.322Z,9.56
2023-01-02T17:45:46.596Z,9.55
2023-01-02T17:48:23.827Z,9.61
2023-01-02T17:50:56.787Z,9.71
2023-01-02T17:53:28.794Z,9.76
2023-01-02T17:56:20.744Z,9.69
2023-01-02T17:58:53.070Z,9.48
2023-01-02T18:01:26.762Z,9.40
2023-01-02T18:03:58.814Z,9.37
2023-01-02T18:06:30.829Z,9.34
2023-01-02T18:09:03.771Z,9.20
2023-01-02T18:11:35.870Z,9.10
2023-01-02T18:14:25.971Z,8.98
2023-01-02T18:17:00.039Z,8.90
2023-01-02T18:19:33.619Z,8.80
2023-01-02T18:22:29.514Z,8.74
2023-01-02T18:25:19.716Z,8.73
2023-01-02T18:27:51.802Z,8.69
2023-01-02T18:30:25.725Z,8.69
2023-01-02T18:33:13.305Z,8.71
2023-01-02T18:35:58.426Z,8.59
2023-01-02T18:38:36.045Z,8.48
2023-01-02T18:41:28.941Z,8.42
2023-01-02T18:44:18.747Z,8.39
2023-01-02T18:47:02.233Z,8.40
2023-01-02T18:49:42.669Z,8.41
2023-01-02T18:52:24.391Z,8.42
2023-01-02T18:55:11.345Z,8.43
2023-01-02T18:58:37.107Z,8.36
2023-01-02T19:01:31.047Z,8.32
2023-01-02T19:04:27.694Z,8.31
2023-01-02T19:07:23.501Z,8.25
2023-01-02T19:10:10.609Z,8.21
2023-01-02T19:13:08.028Z,8.32
2023-01-02T19:15:54.692Z,8.37
2023-01-02T19:18:26.641Z,8.34
2023-01-02T19:21:35.881Z,8.31
2023-01-02T19:24:16.957Z,8.37
2023-01-02T19:26:53.482Z,8.31
2023-01-02T19:29:30.531Z,8.36
2023-01-02T19:32:16.380Z,8.32
2023-01-02T19:34:52.683Z,8.24
2023-01-02T19:37:30.664Z,8.22
2023-01-02T19:40:14.632Z,8.26
2023-01-02T19:42:53.102Z,8.21
2023-01-02T19:45:34.702Z,8.17
2023-01-02T19:48:06.687Z,8.19
2023-01-02T19:50:41.912Z,8.14
2023-01-02T19:53:14.247Z,8.12
2023-01-02T19:55:46.301Z,8.15
2023-01-02T19:58:18.622Z,8.13
2023-01-02T20:00:50.585Z,8.15
2023-01-02T20:03:22.663Z,8.10
2023-01-02T20:05:54.708Z,8.04
2023-01-02T20:08:27.989Z,8.08
2023-01-02T20:11:00.589Z,8.02
2023-01-02T20:13:32.591Z,8.03
2023-01-02T20:16:04.950Z,8.03
2023-01-02T20:18:37.006Z,8.02
2023-01-02T20:21:08.987Z,8.05
2023-01-02T20:23:41.094Z,8.06
2023-01-02T20:26:13.116Z,8.04
2023-01-02T20:28:45.213Z,8.02
2023-01-02T20:31:17.523Z,8.04
2023-01-02T20:33:49.584Z,8.05
2023-01-02T20:36:21.982Z,7.98
2023-01-02T20:38:54.094Z,7.95
2023-01-02T20:41:26.088Z,7.89
2023-01-02T20:43:58.254Z,7.92
2023-01-02T20:46:33.344Z,7.94
2023-01-02T20:49:06.561Z,7.97
2023-01-02T20:51:39.098Z,7.97
2023-01-02T20:54:11.700Z,7.98
2023-01-02T20:56:43.956Z,7.95
2023-01-02T20:59:16.245Z,8.00
2023-01-02T21:01:49.147Z,8.04
2023-01-02T21:04:27.809Z,8.08
2023-01-02T21:07:02.768Z,8.02
2023-01-02T21:09:35.018Z,8.13
2023-01-02T21:12:27.049Z,8.14
2023-01-02T21:14:59.056Z,8.13
2023-01-02T21:17:31.169Z,8.14
2023-01-02T21:20:03.197Z,8.11
2023-01-02T21:22:43.376Z,8.01
2023-01-02T21:25:15.546Z,7.90
2023-01-02T21:27:47.805Z,7.90
2023-01-02T21:30:19.838Z,7.83
2023-01-02T21:32:52.119Z,7.83
2023-01-02T21:35:24.330Z,7.75
2023-01-02T21:37:56.445Z,7.67
2023-01-02T21:40:29.499Z,7.73
2023-01-02T21:43:02.002Z,7.68
2023-01-02T21:45:34.161Z,7.68
2023-01-02T21:48:07.723Z,7.66
2023-01-02T21:50:39.992Z,7.71
2023-01-02T21:53:12.763Z,7.75
2023-01-02T21:55:44.951Z,7.71
2023-01-02T21:58:17.179Z,7.69
2023-01-02T22:00:49.206Z,7.56
2023-01-02T22:03:21.258Z,7.57
2023-01-02T22:05:53.872Z,7.50
2023-01-02T22:08:25.971Z,7.48
2023-01-02T22:11:18.217Z,7.47
2023-01-02T22:13:50.261Z,7.48
2023-01-02T22:16:22.505Z,7.51
2023-01-02T22:18:54.604Z,7.40
2023-01-02T22:21:26.874Z,7.38
2023-01-02T22:23:58.951Z,7.25
2023-01-02T22:26:31.455Z,7.32
2023-01-02T22:29:04.738Z,7.34
2023-01-02T22:31:36.935Z,7.25
2023-01-02T22:34:10.293Z,7.24
2023-01-02T22:36:42.452Z,7.29
2023-01-02T22:39:28.193Z,7.22
2023-01-02T22:42:57.695Z,7.23
2023-01-02T22:45:19.342Z,7.23
2023-01-02T22:47:51.821Z,7.16
2023-01-02T22:50:31.843Z,7.16
2023-01-02T22:53:24.988Z,7.11
2023-01-02T22:55:57.437Z,7.09
2023-01-02T22:58:29.780Z,7.11
2023-01-02T23:01:10.823Z,7.13
2023-01-02T23:03:44.680Z,7.09
2023-01-02T23:06:22.225Z,7.08
2023-01-02T23:08:54.893Z,7.03
2023-01-02T23:11:26.984Z,7.01
2023-01-02T23:13:59.008Z,7.02
2023-01-02T23:16:52.754Z,7.02
2023-01-02T23:19:26.572Z,6.98
2023-01-02T23:22:00.837Z,6.96
2023-01-02T23:24:36.877Z,7.00
2023-01-02T23:27:12.290Z,6.97
2023-01-02T23:29:44.516Z,6.97
2023-01-02T23:32:16.838Z,6.98
2023-01-02T23:34:48.877Z,6.98
2023-01-02T23:37:20.912Z,6.86
2023-01-02T23:39:53.197Z,6.96
2023-01-02T23:42:25.287Z,6.99
2023-01-02T23:44:57.414Z,6.93
2023-01-02T23:47:29.384Z,7.02
2023-01-02T23:50:01.369Z,7.04
2023-01-02T23:52:33.420Z,7.03
2023-01-02T23:55:06.210Z,7.01
2023-01-02T23:57:38.268Z,7.04
